Time;durP1;ratioP1;P1;durP2;ratioP2;P2;SDS_P1;SDS_P2;PMS_P1;PMS_P2;Temp;Humidity;BMP_temperature;BMP_pressure;BME280_temperature;BME280_humidity;BME280_pressure;Samples;Min_cycle;Max_cycle;Signal;HPM_P1;HPM_P2
2023/03/06 00:00:57;;;;;;;1.10;0.95;;;20.20;67.10;;;;;;5039067;28;20199;-59
2023/03/06 00:03:26;;;;;;;1.00;0.80;;;20.20;67.10;;;;;;5043996;28;20192;-59
2023/03/06 00:05:54;;;;;;;1.25;0.90;;;20.20;67.20;;;;;;5043669;28;20732;-65
2023/03/06 00:08:21;;;;;;;2.65;0.77;;;20.30;67.30;;;;;;5042302;28;20567;-62
2023/03/06 00:10:47;;;;;;;2.85;0.98;;;20.30;67.40;;;;;;5040918;28;20199;-61
2023/03/06 00:13:17;;;;;;;1.50;1.00;;;20.30;67.40;;;;;;5046633;28;20192;-58
2023/03/06 00:15:46;;;;;;;1.10;0.80;;;20.30;67.40;;;;;;5047053;28;20195;-57
2023/03/06 00:18:13;;;;;;;1.08;0.80;;;20.30;67.50;;;;;;5045469;28;20682;-62
2023/03/06 00:20:42;;;;;;;1.33;0.90;;;20.30;67.50;;;;;;5045536;28;20291;-61
2023/03/06 00:23:10;;;;;;;2.78;1.02;;;20.30;67.50;;;;;;5045463;28;20223;-61
2023/03/06 00:25:37;;;;;;;1.60;1.02;;;20.30;67.50;;;;;;5042427;28;20196;-63
2023/03/06 00:28:04;;;;;;;1.50;0.80;;;20.30;67.60;;;;;;5041472;28;20215;-58
2023/03/06 00:30:31;;;;;;;2.65;0.70;;;20.40;67.70;;;;;;5041650;28;20191;-62
2023/03/06 00:32:59;;;;;;;1.08;0.80;;;20.40;67.80;;;;;;5042671;28;20195;-59
2023/03/06 00:35:26;;;;;;;2.60;1.08;;;20.40;67.80;;;;;;5046000;28;20561;-63
2023/03/06 00:37:52;;;;;;;2.55;1.20;;;20.40;67.80;;;;;;5049852;28;20210;-62
2023/03/06 00:40:21;;;;;;;1.20;0.80;;;20.40;67.80;;;;;;5046897;28;20686;-63
2023/03/06 00:42:48;;;;;;;0.90;0.80;;;20.40;67.90;;;;;;5043402;28;20199;-62
2023/03/06 00:45:15;;;;;;;1.50;0.70;;;20.40;67.90;;;;;;5049618;28;20420;-63
2023/03/06 00:47:42;;;;;;;1.23;0.80;;;20.40;67.90;;;;;;5043189;28;20297;-63
2023/03/06 00:50:11;;;;;;;1.52;1.00;;;20.40;67.90;;;;;;5047274;28;20195;-64
2023/03/06 00:52:38;;;;;;;0.90;0.60;;;20.40;67.90;;;;;;5046845;28;20196;-63
2023/03/06 00:55:06;;;;;;;1.20;0.90;;;20.40;67.90;;;;;;5049213;28;20236;-65
2023/03/06 00:57:32;;;;;;;1.20;0.93;;;20.40;67.90;;;;;;5046148;28;20206;-64
2023/03/06 00:59:59;;;;;;;0.98;0.80;;;20.50;68.00;;;;;;5052086;28;20202;-65
2023/03/06 01:02:26;;;;;;;1.10;0.80;;;20.50;68.10;;;;;;5051123;28;20208;-65
2023/03/06 01:04:53;;;;;;;1.00;0.80;;;20.50;68.10;;;;;;5051082;28;20567;-70
2023/03/06 01:07:21;;;;;;;1.20;0.70;;;20.50;68.10;;;;;;5045142;28;21429;-64
2023/03/06 01:09:47;;;;;;;1.48;0.90;;;20.50;68.10;;;;;;5048733;28;20196;-66
2023/03/06 01:12:14;;;;;;;2.10;0.90;;;20.50;68.10;;;;;;5048023;28;20683;-63
2023/03/06 01:14:41;;;;;;;1.10;0.80;;;20.50;68.10;;;;;;5043703;28;20694;-65
2023/03/06 01:17:08;;;;;;;0.90;0.60;;;20.50;68.10;;;;;;5047027;28;20199;-65
2023/03/06 01:19:34;;;;;;;1.73;1.00;;;20.50;68.10;;;;;;5040868;28;21485;-63
2023/03/06 01:22:01;;;;;;;1.63;1.10;;;20.50;68.20;;;;;;5046168;28;20215;-63
2023/03/06 01:24:29;;;;;;;1.25;0.80;;;20.50;68.10;;;;;;5042684;28;20204;-69
2023/03/06 01:26:56;;;;;;;0.95;0.70;;;20.50;68.20;;;;;;5045883;28;20195;-64
2023/03/06 01:29:23;;;;;;;2.03;0.70;;;20.50;68.10;;;;;;5046797;28;20223;-63
2023/03/06 01:31:49;;;;;;;1.02;0.90;;;20.50;68.10;;;;;;5045240;28;20279;-65
2023/03/06 01:34:16;;;;;;;0.93;0.70;;;20.50;68.10;;;;;;5044461;28;20200;-57
2023/03/06 01:36:43;;;;;;;10.93;1.10;;;20.50;68.20;;;;;;5047696;28;20682;-57
2023/03/06 01:39:10;;;;;;;7.53;0.90;;;20.60;68.50;;;;;;5051163;28;20226;-59
2023/03/06 01:41:38;;;;;;;2.22;0.85;;;20.60;68.40;;;;;;5041660;28;20200;-58
2023/03/06 01:44:05;;;;;;;1.27;0.80;;;20.50;68.30;;;;;;5052336;28;20203;-56
2023/03/06 01:46:40;;;;;;;2.78;0.80;;;20.50;68.30;;;;;;5046471;28;20196;-58
2023/03/06 01:49:12;;;;;;;2.70;1.10;;;20.50;68.20;;;;;;5041818;28;20227;-53
2023/03/06 01:51:43;;;;;;;2.95;0.90;;;20.50;68.20;;;;;;5041837;28;20218;-55
2023/03/06 01:54:14;;;;;;;1.58;0.80;;;20.50;68.20;;;;;;5040135;28;20196;-53
2023/03/06 01:56:46;;;;;;;1.02;0.80;;;20.50;68.20;;;;;;5038849;28;20199;-53
2023/03/06 01:59:13;;;;;;;1.83;0.80;;;20.50;68.10;;;;;;5041431;28;20203;-54
2023/03/06 02:01:41;;;;;;;1.17;0.80;;;20.40;68.00;;;;;;5039925;28;20200;-58
2023/03/06 02:04:09;;;;;;;3.45;0.80;;;20.40;67.90;;;;;;5044403;28;20199;-56
2023/03/06 02:06:41;;;;;;;6.13;0.95;;;20.40;67.90;;;;;;5044849;28;20210;-59
2023/03/06 02:09:09;;;;;;;2.00;0.90;;;20.40;67.80;;;;;;5043938;28;20277;-59
2023/03/06 02:11:35;;;;;;;1.55;1.45;;;20.40;67.80;;;;;;5043475;28;20568;-60
2023/03/06 02:14:03;;;;;;;1.20;0.88;;;20.40;67.70;;;;;;5044438;28;20234;-62
2023/03/06 02:16:34;;;;;;;1.10;0.93;;;20.40;67.60;;;;;;5041629;28;20198;-55
2023/03/06 02:19:02;;;;;;;1.33;0.80;;;20.40;67.60;;;;;;5046343;28;20199;-55
2023/03/06 02:21:32;;;;;;;1.85;0.70;;;20.40;67.50;;;;;;5044171;28;20726;-55
2023/03/06 02:24:13;;;;;;;2.65;1.02;;;20.40;67.50;;;;;;5039936;28;20195;-57
2023/03/06 02:26:44;;;;;;;2.50;1.10;;;20.40;67.50;;;;;;5037803;28;20199;-57
2023/03/06 02:29:11;;;;;;;1.40;1.00;;;20.40;67.40;;;;;;5042462;28;20215;-57
2023/03/06 02:31:37;;;;;;;0.90;0.70;;;20.40;67.40;;;;;;5036798;28;20203;-55
2023/03/06 02:34:07;;;;;;;1.23;1.00;;;20.40;67.40;;;;;;5045709;28;20196;-55
2023/03/06 02:36:38;;;;;;;1.00;0.90;;;20.40;67.30;;;;;;5038695;28;20195;-60
2023/03/06 02:39:05;;;;;;;1.10;0.80;;;20.40;67.30;;;;;;5040630;28;20249;-56
2023/03/06 02:41:32;;;;;;;1.08;0.90;;;20.40;67.30;;;;;;5037166;28;20327;-61
2023/03/06 02:44:00;;;;;;;1.15;1.00;;;20.40;67.30;;;;;;5045520;28;20219;-54
2023/03/06 02:46:27;;;;;;;1.15;0.80;;;20.40;67.30;;;;;;5042294;28;20664;-54
2023/03/06 02:48:53;;;;;;;1.00;0.80;;;20.40;67.20;;;;;;5045572;28;20226;-56
2023/03/06 02:51:20;;;;;;;0.90;0.70;;;20.40;67.20;;;;;;5042657;28;20199;-60
2023/03/06 02:53:47;;;;;;;1.48;0.90;;;20.40;67.20;;;;;;5051114;28;20200;-65
2023/03/06 02:56:14;;;;;;;2.25;0.90;;;20.40;67.10;;;;;;5048745;28;20754;-56
2023/03/06 02:58:40;;;;;;;1.05;0.90;;;20.40;67.10;;;;;;5049457;28;20632;-60
2023/03/06 03:01:08;;;;;;;1.88;1.00;;;20.40;67.10;;;;;;5045881;28;20204;-54
2023/03/06 03:03:35;;;;;;;0.90;0.63;;;20.40;67.10;;;;;;5044957;28;20195;-58
2023/03/06 03:06:04;;;;;;;1.25;0.70;;;20.40;67.10;;;;;;5051529;28;20199;-59
2023/03/06 03:08:31;;;;;;;1.13;1.02;;;20.30;66.90;;;;;;5049917;28;20763;-56
2023/03/06 03:10:58;;;;;;;1.02;0.82;;;20.30;67.00;;;;;;5045381;28;20244;-60
2023/03/06 03:13:25;;;;;;;0.90;0.70;;;20.30;66.90;;;;;;5047704;28;20204;-59
2023/03/06 03:15:59;;;;;;;1.85;1.10;;;20.30;66.90;;;;;;5049181;28;20204;-55
2023/03/06 03:18:28;;;;;;;2.35;1.08;;;20.30;66.90;;;;;;5047766;28;20203;-60
2023/03/06 03:20:55;;;;;;;1.13;1.00;;;20.30;66.90;;;;;;5042933;28;20578;-59
2023/03/06 03:23:23;;;;;;;1.00;0.80;;;20.30;66.90;;;;;;5039423;28;20222;-57
2023/03/06 03:25:50;;;;;;;1.48;0.80;;;20.30;66.90;;;;;;5035283;28;20196;-53
2023/03/06 03:28:17;;;;;;;1.30;0.90;;;20.30;67.70;;;;;;5044547;28;20219;-61
2023/03/06 03:30:44;;;;;;;1.00;0.77;;;20.30;66.90;;;;;;5040501;28;20655;-58
2023/03/06 03:33:11;;;;;;;1.20;0.90;;;20.30;66.80;;;;;;5037768;28;20195;-55
2023/03/06 03:35:39;;;;;;;1.10;0.80;;;20.30;66.80;;;;;;5049920;28;20204;-55
2023/03/06 03:38:06;;;;;;;1.17;0.80;;;20.30;66.80;;;;;;5037248;28;20211;-54
2023/03/06 03:40:33;;;;;;;1.88;1.00;;;20.30;66.90;;;;;;5036136;28;20276;-57
2023/03/06 03:42:59;;;;;;;1.60;0.85;;;20.30;66.80;;;;;;5043385;28;20199;-54
2023/03/06 03:45:26;;;;;;;1.00;0.70;;;20.30;66.80;;;;;;5042155;28;20652;-55
2023/03/06 03:47:53;;;;;;;1.20;0.80;;;20.30;66.90;;;;;;5038522;28;20203;-57
2023/03/06 03:50:19;;;;;;;0.95;0.80;;;20.30;66.80;;;;;;5035874;28;20219;-55
2023/03/06 03:52:48;;;;;;;1.02;0.90;;;20.30;66.80;;;;;;5038789;28;20203;-58
2023/03/06 03:55:14;;;;;;;1.80;0.90;;;20.20;66.70;;;;;;5044002;28;20215;-60
2023/03/06 03:57:41;;;;;;;1.00;0.80;;;20.20;66.70;;;;;;5040538;28;20206;-58
2023/03/06 04:00:14;;;;;;;1.20;0.80;;;20.20;66.70;;;;;;5043645;28;20206;-55
2023/03/06 04:02:41;;;;;;;1.10;0.70;;;20.20;66.70;;;;;;5045154;28;20202;-56
2023/03/06 04:05:09;;;;;;;1.00;0.80;;;20.20;66.70;;;;;;5041862;28;20192;-55
2023/03/06 04:07:36;;;;;;;1.50;1.33;;;20.20;66.70;;;;;;5038434;28;20226;-54
2023/03/06 04:10:05;;;;;;;1.30;0.85;;;20.20;66.70;;;;;;5042355;28;20223;-54
2023/03/06 04:12:31;;;;;;;1.15;0.90;;;20.20;66.70;;;;;;5043415;28;20198;-58
2023/03/06 04:14:58;;;;;;;0.90;0.70;;;20.20;66.70;;;;;;5039561;28;20579;-54
2023/03/06 04:17:25;;;;;;;1.20;0.70;;;20.20;66.70;;;;;;5039476;28;20651;-57
2023/03/06 04:19:52;;;;;;;1.10;0.90;;;20.20;66.70;;;;;;5039082;28;20203;-56
2023/03/06 04:22:19;;;;;;;1.27;0.85;;;20.20;66.70;;;;;;5035608;28;20216;-58
2023/03/06 04:24:48;;;;;;;0.90;0.70;;;20.20;66.70;;;;;;5037449;28;20631;-52
2023/03/06 04:27:16;;;;;;;1.02;0.90;;;20.20;66.70;;;;;;5038779;28;20254;-53
2023/03/06 04:29:43;;;;;;;1.77;1.02;;;20.20;66.70;;;;;;5036880;28;20234;-54
2023/03/06 04:32:09;;;;;;;1.40;1.27;;;20.20;66.70;;;;;;5045139;28;20206;-57
2023/03/06 04:34:37;;;;;;;0.90;0.75;;;20.20;66.70;;;;;;5045316;28;20195;-59
2023/03/06 04:37:04;;;;;;;1.20;1.00;;;20.20;66.70;;;;;;5041903;28;20219;-55
2023/03/06 04:39:30;;;;;;;1.00;0.70;;;20.10;66.50;;;;;;5040113;28;20218;-56
2023/03/06 04:41:57;;;;;;;1.00;0.90;;;20.20;66.70;;;;;;5047066;28;20195;-57
2023/03/06 04:44:25;;;;;;;1.00;0.70;;;20.10;66.50;;;;;;5038864;28;20200;-58
2023/03/06 04:46:52;;;;;;;0.95;0.80;;;20.10;66.50;;;;;;5049673;28;20571;-61
2023/03/06 04:49:18;;;;;;;1.10;0.75;;;20.10;66.50;;;;;;5042740;28;20227;-61
2023/03/06 04:51:45;;;;;;;1.85;0.90;;;20.10;66.50;;;;;;5043987;28;20579;-54
2023/03/06 04:54:12;;;;;;;1.00;0.80;;;20.10;66.60;;;;;;5050913;28;20203;-54
2023/03/06 04:56:38;;;;;;;1.13;0.90;;;20.10;66.50;;;;;;5041041;28;20234;-57
2023/03/06 04:59:05;;;;;;;1.70;1.02;;;20.10;66.60;;;;;;5043440;28;20611;-56
2023/03/06 05:01:33;;;;;;;1.23;0.88;;;20.10;66.50;;;;;;5047796;28;20193;-63
2023/03/06 05:04:00;;;;;;;1.10;1.00;;;20.10;66.50;;;;;;5043584;28;20199;-56
2023/03/06 05:06:27;;;;;;;1.05;0.80;;;20.10;66.50;;;;;;5049049;28;20199;-56
2023/03/06 05:08:53;;;;;;;1.00;0.90;;;20.10;66.50;;;;;;5049631;28;20215;-55
2023/03/06 05:11:20;;;;;;;0.90;0.80;;;20.10;67.30;;;;;;5048512;28;20200;-56
2023/03/06 05:13:47;;;;;;;1.00;0.90;;;20.10;66.60;;;;;;5045538;28;20210;-53
2023/03/06 05:16:13;;;;;;;1.08;0.98;;;20.10;66.50;;;;;;5049773;28;20196;-55
2023/03/06 05:18:41;;;;;;;1.27;0.90;;;20.10;66.50;;;;;;5045123;28;20664;-60
2023/03/06 05:21:08;;;;;;;1.25;0.80;;;20.10;66.50;;;;;;5043309;28;20212;-57
2023/03/06 05:23:37;;;;;;;0.90;0.70;;;20.10;66.50;;;;;;5042535;28;20197;-55
2023/03/06 05:26:07;;;;;;;1.27;1.05;;;20.10;66.50;;;;;;5041039;28;20215;-61
2023/03/06 05:28:34;;;;;;;1.90;0.90;;;20.10;66.60;;;;;;5042015;28;20196;-60
2023/03/06 05:31:00;;;;;;;1.20;0.82;;;20.10;66.50;;;;;;5046059;28;20192;-58
2023/03/06 05:33:27;;;;;;;1.25;0.90;;;20.10;66.50;;;;;;5048306;28;20199;-57
2023/03/06 05:35:55;;;;;;;1.00;0.85;;;20.10;66.60;;;;;;5047268;28;20678;-62
2023/03/06 05:38:22;;;;;;;1.30;0.80;;;20.10;66.50;;;;;;5044181;28;20212;-63
2023/03/06 05:40:48;;;;;;;1.10;0.70;;;20.10;66.50;;;;;;5042979;28;20242;-57
2023/03/06 05:43:15;;;;;;;2.47;0.80;;;20.10;66.50;;;;;;5042286;28;20223;-55
2023/03/06 05:45:42;;;;;;;1.70;0.80;;;20.10;66.50;;;;;;5041341;28;20192;-61
2023/03/06 05:48:10;;;;;;;1.10;0.80;;;20.10;66.60;;;;;;5041555;28;20203;-56
2023/03/06 05:50:37;;;;;;;1.00;0.80;;;20.10;66.60;;;;;;5040792;28;20231;-61
2023/03/06 05:53:05;;;;;;;1.10;0.80;;;20.10;66.60;;;;;;5038966;28;20581;-62
2023/03/06 05:55:32;;;;;;;2.45;1.00;;;20.00;66.40;;;;;;5042308;28;20206;-66
2023/03/06 05:57:58;;;;;;;1.40;0.90;;;20.00;66.40;;;;;;5041015;28;20571;-57
2023/03/06 06:00:25;;;;;;;0.90;0.70;;;20.00;66.50;;;;;;5041203;28;20202;-63
2023/03/06 06:02:52;;;;;;;0.90;0.80;;;20.00;66.50;;;;;;5041903;28;20204;-63
2023/03/06 06:05:19;;;;;;;0.90;0.80;;;20.00;66.80;;;;;;5042531;28;20203;-53
2023/03/06 06:07:45;;;;;;;1.13;0.77;;;20.00;66.40;;;;;;5046660;28;20191;-55
2023/03/06 06:10:14;;;;;;;1.02;0.63;;;20.00;66.50;;;;;;5044534;28;20587;-59
2023/03/06 06:12:40;;;;;;;0.95;0.73;;;20.00;66.50;;;;;;5046619;28;20208;-59
2023/03/06 06:15:08;;;;;;;1.00;0.90;;;20.00;66.50;;;;;;5045830;28;20206;-57
2023/03/06 06:17:34;;;;;;;1.10;0.80;;;20.00;66.50;;;;;;5041682;28;20232;-58
2023/03/06 06:20:01;;;;;;;0.90;0.73;;;20.00;66.50;;;;;;5047705;28;20200;-57
2023/03/06 06:22:28;;;;;;;0.98;0.80;;;20.00;66.50;;;;;;5045360;28;20220;-58
2023/03/06 06:24:55;;;;;;;1.00;0.80;;;20.00;66.50;;;;;;5039852;28;20753;-56
2023/03/06 06:27:23;;;;;;;1.10;0.80;;;20.00;66.50;;;;;;5046153;28;20210;-60
2023/03/06 06:29:52;;;;;;;0.90;0.70;;;20.00;66.40;;;;;;5044714;28;20224;-55
2023/03/06 06:32:19;;;;;;;0.80;0.60;;;20.00;66.40;;;;;;5043632;28;20273;-60
2023/03/06 06:34:45;;;;;;;0.90;0.70;;;20.00;66.50;;;;;;5041702;28;20200;-58
2023/03/06 06:37:12;;;;;;;1.10;0.80;;;20.00;66.50;;;;;;5039804;28;20206;-61
2023/03/06 06:39:39;;;;;;;1.27;0.70;;;20.00;66.50;;;;;;5047054;28;20203;-61
2023/03/06 06:42:07;;;;;;;0.93;0.77;;;20.00;66.50;;;;;;5044125;28;20199;-54
2023/03/06 06:44:35;;;;;;;1.10;0.90;;;20.00;66.50;;;;;;5045273;28;20191;-53
2023/03/06 06:47:03;;;;;;;1.10;0.90;;;20.00;66.50;;;;;;5050252;28;20203;-55
2023/03/06 06:49:30;;;;;;;1.00;0.85;;;20.00;66.50;;;;;;5047663;28;20309;-54
2023/03/06 06:51:57;;;;;;;0.93;0.70;;;20.00;66.50;;;;;;5050425;28;20758;-57
2023/03/06 06:54:23;;;;;;;0.88;0.70;;;20.00;66.50;;;;;;5048306;28;20199;-53
2023/03/06 06:56:50;;;;;;;0.90;0.80;;;20.00;66.50;;;;;;5050674;28;20207;-52
2023/03/06 06:59:17;;;;;;;0.90;0.80;;;20.00;66.50;;;;;;5049565;28;20210;-59
2023/03/06 07:01:45;;;;;;;0.98;0.75;;;20.00;66.50;;;;;;5046897;28;20592;-51
2023/03/06 07:04:12;;;;;;;0.88;0.75;;;20.00;66.50;;;;;;5049038;28;20203;-54
2023/03/06 07:06:39;;;;;;;1.00;0.80;;;20.00;66.40;;;;;;5040968;28;20203;-54
2023/03/06 07:09:06;;;;;;;0.90;0.70;;;20.00;66.50;;;;;;5047434;28;20199;-53
2023/03/06 07:11:32;;;;;;;2.85;0.90;;;20.00;66.50;;;;;;5048153;28;20192;-62
2023/03/06 07:14:00;;;;;;;0.90;0.65;;;20.10;66.60;;;;;;5049055;28;20682;-59
2023/03/06 07:16:27;;;;;;;0.95;0.80;;;20.10;66.60;;;;;;5044656;28;20222;-58
2023/03/06 07:18:55;;;;;;;0.90;0.60;;;20.10;66.60;;;;;;5040386;28;20199;-63
2023/03/06 07:21:22;;;;;;;0.90;0.80;;;20.10;66.60;;;;;;5043494;28;20206;-56
2023/03/06 07:23:49;;;;;;;1.00;0.70;;;20.10;66.60;;;;;;5041455;28;20191;-58
2023/03/06 07:26:16;;;;;;;1.00;0.85;;;20.10;66.60;;;;;;5040826;28;20206;-54
2023/03/06 07:28:42;;;;;;;0.95;0.77;;;20.10;66.60;;;;;;5045085;28;20197;-54
2023/03/06 07:31:10;;;;;;;0.90;0.80;;;20.10;66.60;;;;;;5039687;28;20246;-59
2023/03/06 07:33:37;;;;;;;0.90;0.80;;;20.10;66.70;;;;;;5038177;28;20417;-59
2023/03/06 07:36:08;;;;;;;1.00;0.80;;;20.10;66.60;;;;;;5037514;28;20207;-56
2023/03/06 07:38:35;;;;;;;0.90;0.70;;;20.10;66.60;;;;;;5039062;28;20192;-60
2023/03/06 07:41:03;;;;;;;1.00;0.80;;;20.10;66.60;;;;;;5040481;28;20218;-63
2023/03/06 07:43:30;;;;;;;0.95;0.73;;;20.10;66.60;;;;;;5039241;28;20219;-60
2023/03/06 07:45:57;;;;;;;0.90;0.80;;;20.10;66.60;;;;;;5041891;28;20211;-58
2023/03/06 07:48:24;;;;;;;0.90;0.70;;;20.10;66.60;;;;;;5038698;28;20199;-62
2023/03/06 07:50:56;;;;;;;1.10;0.82;;;20.10;66.70;;;;;;5038790;28;20254;-56
2023/03/06 07:53:24;;;;;;;1.10;1.00;;;20.10;66.70;;;;;;5037668;28;20215;-56
2023/03/06 07:55:52;;;;;;;0.90;0.70;;;20.10;66.70;;;;;;5039313;28;20195;-60
2023/03/06 07:58:18;;;;;;;1.02;0.80;;;20.10;66.70;;;;;;5040387;28;20211;-63
2023/03/06 08:00:45;;;;;;;1.52;0.90;;;20.00;66.60;;;;;;5036743;28;20199;-59
2023/03/06 08:03:12;;;;;;;0.80;0.70;;;20.10;66.70;;;;;;5036825;28;20761;-55
2023/03/06 08:05:40;;;;;;;1.00;0.75;;;20.00;66.50;;;;;;5037065;28;21412;-60
2023/03/06 08:08:07;;;;;;;0.90;0.70;;;20.00;66.60;;;;;;5047422;28;20206;-56
2023/03/06 08:10:35;;;;;;;0.80;0.70;;;20.10;66.70;;;;;;5037775;28;20234;-61
2023/03/06 08:13:01;;;;;;;0.90;0.70;;;20.00;66.60;;;;;;5036919;28;20191;-63
2023/03/06 08:15:28;;;;;;;0.90;0.70;;;20.10;66.70;;;;;;5038045;28;20199;-60
2023/03/06 08:17:55;;;;;;;1.10;0.98;;;20.00;66.60;;;;;;5035052;28;20203;-55
2023/03/06 08:20:22;;;;;;;0.80;0.60;;;20.00;66.60;;;;;;5034931;28;20199;-56
2023/03/06 08:22:48;;;;;;;0.90;0.80;;;20.00;66.60;;;;;;5038455;28;20220;-60
2023/03/06 08:25:15;;;;;;;0.90;0.70;;;20.00;66.60;;;;;;5040979;28;20288;-55
2023/03/06 08:27:45;;;;;;;0.95;0.70;;;20.10;66.70;;;;;;5037557;28;20196;-56
2023/03/06 08:30:13;;;;;;;1.08;0.98;;;20.00;66.60;;;;;;5043722;28;20667;-58
2023/03/06 08:32:40;;;;;;;0.80;0.70;;;20.10;66.70;;;;;;5042563;28;20192;-62
2023/03/06 08:35:07;;;;;;;0.80;0.70;;;20.00;66.60;;;;;;5043210;28;20195;-59
2023/03/06 08:37:34;;;;;;;0.90;0.70;;;20.00;66.60;;;;;;5041804;28;20203;-60
2023/03/06 08:40:03;;;;;;;0.98;0.77;;;20.10;66.70;;;;;;5041901;28;20200;-54
2023/03/06 08:42:30;;;;;;;1.10;0.85;;;20.10;66.70;;;;;;5041270;28;20554;-62
2023/03/06 08:44:58;;;;;;;0.80;0.60;;;20.10;66.70;;;;;;5035396;28;20283;-53
2023/03/06 08:47:25;;;;;;;1.00;0.80;;;20.10;66.70;;;;;;5044727;28;21955;-56
2023/03/06 08:49:51;;;;;;;1.20;0.80;;;20.10;66.70;;;;;;5044661;28;20223;-56
2023/03/06 08:52:18;;;;;;;1.00;0.80;;;20.10;66.70;;;;;;5038158;28;20194;-58
2023/03/06 08:54:45;;;;;;;2.08;1.00;;;20.20;67.00;;;;;;5039408;28;20253;-53
2023/03/06 08:57:12;;;;;;;4.50;1.00;;;20.20;66.90;;;;;;5047882;28;20195;-52
2023/03/06 08:59:40;;;;;;;10.88;6.10;;;20.20;66.90;;;;;;5042638;28;20192;-56
2023/03/06 09:02:13;;;;;;;13.55;10.88;;;19.90;62.70;;;;;;5041727;28;20230;-57
2023/03/06 09:04:40;;;;;;;14.07;12.73;;;19.50;59.30;;;;;;5041745;28;20206;-60
2023/03/06 09:07:07;;;;;;;14.85;13.07;;;19.20;57.90;;;;;;5041932;28;20212;-49
2023/03/06 09:09:34;;;;;;;11.15;10.13;;;19.00;57.50;;;;;;5039479;28;20711;-52
2023/03/06 09:12:00;;;;;;;8.75;7.95;;;19.10;58.80;;;;;;5045469;28;20199;-50
2023/03/06 09:14:27;;;;;;;7.60;6.43;;;19.30;59.40;;;;;;5046274;28;20201;-49
2023/03/06 09:16:54;;;;;;;6.55;5.95;;;19.40;60.10;;;;;;5045458;28;20218;-55
2023/03/06 09:19:22;;;;;;;6.15;5.57;;;19.50;60.70;;;;;;5044633;28;20670;-49
2023/03/06 09:21:48;;;;;;;5.10;4.70;;;19.60;61.20;;;;;;5050577;28;20212;-47
2023/03/06 09:24:15;;;;;;;5.00;4.45;;;19.60;61.50;;;;;;5043424;28;20207;-48
2023/03/06 09:26:42;;;;;;;5.50;4.78;;;19.70;61.80;;;;;;5041634;28;20195;-53
2023/03/06 09:29:09;;;;;;;6.00;4.55;;;19.70;62.00;;;;;;5049773;28;20195;-49
2023/03/06 09:31:35;;;;;;;4.32;3.92;;;19.70;62.00;;;;;;5042015;28;20580;-47
2023/03/06 09:34:02;;;;;;;4.15;3.70;;;19.70;62.20;;;;;;5045243;28;20192;-47
2023/03/06 09:36:30;;;;;;;4.35;3.95;;;19.70;62.20;;;;;;5042351;28;20703;-49
2023/03/06 09:38:57;;;;;;;7.65;3.97;;;19.70;62.20;;;;;;5046435;28;20207;-49
2023/03/06 09:41:28;;;;;;;4.53;3.25;;;19.80;62.50;;;;;;5049187;28;20192;-48
2023/03/06 09:44:03;;;;;;;3.92;3.00;;;19.80;62.60;;;;;;5046204;28;20666;-49
2023/03/06 09:46:40;;;;;;;2.50;2.30;;;19.80;63.50;;;;;;5050345;28;20201;-48
2023/03/06 09:49:21;;;;;;;2.80;2.60;;;19.80;62.90;;;;;;5043106;28;20251;-47
2023/03/06 09:52:01;;;;;;;2.55;2.10;;;19.90;63.20;;;;;;5046418;28;20761;-56
2023/03/06 09:54:37;;;;;;;3.00;2.70;;;19.90;64.10;;;;;;5043585;28;20195;-56
2023/03/06 09:57:13;;;;;;;3.50;2.60;;;19.90;63.40;;;;;;5037866;28;20206;-60
2023/03/06 09:59:45;;;;;;;3.75;2.88;;;19.90;63.50;;;;;;5044704;28;20201;-50
2023/03/06 10:02:15;;;;;;;2.65;2.45;;;19.90;63.70;;;;;;5044219;28;20800;-50
2023/03/06 10:04:46;;;;;;;2.67;2.47;;;19.90;63.80;;;;;;5043555;28;20566;-50
2023/03/06 10:07:20;;;;;;;3.08;2.78;;;19.90;63.80;;;;;;5047762;28;20675;-51
2023/03/06 10:09:52;;;;;;;2.30;2.10;;;19.90;63.90;;;;;;5040303;28;20195;-53
2023/03/06 10:12:22;;;;;;;3.70;2.55;;;19.90;63.90;;;;;;5043042;28;20580;-58
2023/03/06 10:15:00;;;;;;;2.08;1.90;;;19.90;64.00;;;;;;5048116;28;20192;-63
2023/03/06 10:17:33;;;;;;;3.60;2.45;;;19.90;64.00;;;;;;5045741;28;20225;-67
2023/03/06 10:20:00;;;;;;;2.65;2.45;;;20.00;64.30;;;;;;5044080;28;20202;-64
2023/03/06 10:22:32;;;;;;;2.70;2.50;;;20.00;64.40;;;;;;5049029;28;20215;-63
2023/03/06 10:25:09;;;;;;;2.30;2.10;;;20.00;64.40;;;;;;5044804;28;20232;-61
2023/03/06 10:27:44;;;;;;;6.03;2.38;;;20.00;64.50;;;;;;5040345;28;20578;-63
2023/03/06 10:30:24;;;;;;;2.50;2.30;;;20.10;64.70;;;;;;5049205;28;20685;-61
2023/03/06 10:32:57;;;;;;;2.15;1.98;;;20.10;64.80;;;;;;5045965;28;20199;-67
2023/03/06 10:35:28;;;;;;;2.40;2.22;;;20.10;64.90;;;;;;5045997;28;20196;-54
2023/03/06 10:38:01;;;;;;;2.08;1.98;;;20.10;64.90;;;;;;5047883;28;20249;-60
2023/03/06 10:40:35;;;;;;;1.80;1.70;;;20.10;65.00;;;;;;5048988;28;20214;-59
2023/03/06 10:43:02;;;;;;;2.60;2.40;;;20.20;65.20;;;;;;5041743;28;20290;-60
2023/03/06 10:45:29;;;;;;;2.08;1.92;;;20.20;65.30;;;;;;5040995;28;20923;-58
2023/03/06 10:48:10;;;;;;;2.50;2.30;;;20.20;65.40;;;;;;5042188;28;20215;-62
2023/03/06 10:50:37;;;;;;;1.95;1.70;;;20.20;65.40;;;;;;5045156;28;20306;-60
2023/03/06 10:53:07;;;;;;;1.80;1.70;;;20.20;65.50;;;;;;5044503;28;20203;-57
2023/03/06 10:55:35;;;;;;;1.95;1.60;;;20.30;65.70;;;;;;5060145;28;20207;-61
2023/03/06 10:58:18;;;;;;;2.42;2.33;;;20.30;65.70;;;;;;5041054;28;20204;-59
2023/03/06 11:00:46;;;;;;;2.28;2.00;;;20.30;65.80;;;;;;5044302;28;20222;-61
2023/03/06 11:03:19;;;;;;;4.18;1.48;;;20.30;65.80;;;;;;5044325;28;20205;-57
2023/03/06 11:06:00;;;;;;;1.95;1.75;;;20.30;65.90;;;;;;5045323;28;20202;-61
2023/03/06 11:08:29;;;;;;;1.85;1.70;;;20.30;65.90;;;;;;5042644;28;20211;-63
2023/03/06 11:10:57;;;;;;;1.77;1.60;;;20.30;66.00;;;;;;5041540;28;20567;-61
2023/03/06 11:13:26;;;;;;;1.80;1.70;;;20.40;66.00;;;;;;5041299;28;20199;-63
2023/03/06 11:16:17;;;;;;;1.75;1.65;;;20.40;66.10;;;;;;5042276;28;20328;-64
2023/03/06 11:18:55;;;;;;;2.33;2.15;;;20.40;66.10;;;;;;5043274;28;20314;-65
2023/03/06 11:21:26;;;;;;;2.00;1.80;;;20.40;66.20;;;;;;5045305;28;21982;-63
2023/03/06 11:23:57;;;;;;;1.77;1.67;;;20.40;66.20;;;;;;5039503;28;20203;-63
2023/03/06 11:26:35;;;;;;;1.95;1.73;;;20.40;66.20;;;;;;5035063;28;20194;-56
2023/03/06 11:29:22;;;;;;;1.80;1.67;;;20.40;66.30;;;;;;5039533;28;20197;-63
2023/03/06 11:31:52;;;;;;;1.75;1.52;;;20.40;66.30;;;;;;5049120;28;20223;-63
2023/03/06 11:34:26;;;;;;;1.92;1.83;;;20.40;66.40;;;;;;5043536;28;20191;-59
2023/03/06 11:36:56;;;;;;;1.88;1.77;;;20.50;66.50;;;;;;5048564;28;20199;-59
2023/03/06 11:39:33;;;;;;;1.60;1.50;;;20.50;66.50;;;;;;5046642;28;20200;-54
2023/03/06 11:42:09;;;;;;;1.75;1.48;;;20.50;66.50;;;;;;5044954;28;20195;-57
2023/03/06 11:44:47;;;;;;;2.70;2.10;;;20.50;66.50;;;;;;5046627;28;20195;-65
2023/03/06 11:47:18;;;;;;;1.88;1.70;;;20.50;66.60;;;;;;5050894;28;20433;-67
2023/03/06 11:49:50;;;;;;;1.60;1.50;;;20.50;66.60;;;;;;5047789;28;20659;-57
2023/03/06 11:52:23;;;;;;;1.83;1.73;;;20.50;66.60;;;;;;5046846;28;20219;-57
2023/03/06 11:54:55;;;;;;;1.67;1.58;;;20.50;66.60;;;;;;5050442;28;20517;-57
2023/03/06 11:57:25;;;;;;;2.05;1.83;;;20.60;66.80;;;;;;5049932;28;20314;-53
2023/03/06 12:00:22;;;;;;;2.08;1.90;;;20.50;66.70;;;;;;5044755;28;20215;-62
2023/03/06 12:03:27;;;;;;;1.67;1.57;;;20.60;66.80;;;;;;5048519;28;20548;-54
2023/03/06 12:06:03;;;;;;;1.48;1.38;;;20.60;66.80;;;;;;5048503;28;20458;-57
2023/03/06 12:08:46;;;;;;;1.93;1.73;;;20.60;66.80;;;;;;5042257;28;20250;-57
2023/03/06 12:11:20;;;;;;;1.63;1.50;;;20.60;66.90;;;;;;5041658;28;20486;-56
2023/03/06 12:14:10;;;;;;;1.70;1.60;;;20.60;66.90;;;;;;5046625;28;20202;-65
2023/03/06 12:16:57;;;;;;;1.63;1.40;;;20.60;66.90;;;;;;5041948;28;20659;-61
2023/03/06 12:19:37;;;;;;;2.05;1.85;;;20.60;66.90;;;;;;5046008;28;20454;-64
2023/03/06 12:22:20;;;;;;;2.20;1.45;;;20.60;67.00;;;;;;5042138;28;20218;-57
2023/03/06 12:25:01;;;;;;;1.83;1.63;;;20.60;67.00;;;;;;5040674;28;20189;-62
2023/03/06 12:27:41;;;;;;;1.50;1.30;;;20.60;67.00;;;;;;5042307;28;20219;-57
2023/03/06 12:30:44;;;;;;;1.50;1.40;;;20.60;67.00;;;;;;5044376;28;20464;-58
2023/03/06 12:33:22;;;;;;;1.35;1.25;;;20.60;67.00;;;;;;5041233;28;20204;-61
2023/03/06 12:36:12;;;;;;;1.35;1.25;;;20.60;67.00;;;;;;5048057;28;20241;-62
2023/03/06 12:38:56;;;;;;;1.73;1.63;;;20.60;67.00;;;;;;5028874;28;20206;-58
2023/03/06 12:41:34;;;;;;;2.15;1.50;;;20.70;67.20;;;;;;5040992;28;20585;-58
2023/03/06 12:44:47;;;;;;;1.58;1.35;;;20.70;67.20;;;;;;5038135;28;20229;-57
2023/03/06 12:47:19;;;;;;;1.45;1.35;;;20.70;67.20;;;;;;5011340;28;20195;-61
2023/03/06 12:49:54;;;;;;;1.50;1.30;;;20.70;67.20;;;;;;5045296;28;20199;-60
2023/03/06 12:52:25;;;;;;;1.50;1.40;;;20.70;67.20;;;;;;5047713;28;20223;-56
2023/03/06 12:54:53;;;;;;;1.30;1.20;;;20.70;67.20;;;;;;5045409;28;20202;-62
2023/03/06 12:57:23;;;;;;;1.65;1.55;;;20.70;67.20;;;;;;5043989;28;20465;-60